createdAt,value
2017-02-04T00:00:56.290Z,23.86
2017-02-04T00:02:06.451Z,23.67
2017-02-04T00:03:15.957Z,23.67
2017-02-04T00:04:26.256Z,23.86
2017-02-04T00:05:36.544Z,23.77
2017-02-04T00:06:47.234Z,23.86
2017-02-04T00:07:57.430Z,23.77
2017-02-04T00:09:07.718Z,23.77
2017-02-04T00:10:18.035Z,23.86
2017-02-04T00:11:28.330Z,23.77
2017-02-04T00:12:37.834Z,23.67
2017-02-04T00:13:48.437Z,23.77
2017-02-04T00:14:59.127Z,23.77
2017-02-04T00:16:09.447Z,23.77
2017-02-04T00:17:19.338Z,23.67
2017-02-04T00:18:30.029Z,23.67
2017-02-04T00:19:40.619Z,23.86
2017-02-04T00:20:50.108Z,23.77
2017-02-04T00:22:00.398Z,23.77
2017-02-04T00:23:10.283Z,23.86
2017-02-04T00:24:20.182Z,23.77
2017-02-04T00:25:31.172Z,23.77
2017-02-04T00:26:41.064Z,23.57
2017-02-04T00:27:50.576Z,23.86
2017-02-04T00:29:00.080Z,23.77
2017-02-04T00:30:09.968Z,23.77
2017-02-04T00:31:20.510Z,23.67
2017-02-04T00:32:30.836Z,23.67
2017-02-04T00:33:41.130Z,23.77
2017-02-04T00:34:50.638Z,23.77
2017-02-04T00:36:00.938Z,23.77
2017-02-04T00:37:11.878Z,23.86
2017-02-04T00:38:22.559Z,23.77
2017-02-04T00:39:32.858Z,23.86
2017-02-04T00:40:43.143Z,23.96
2017-02-04T00:41:53.445Z,23.86
2017-02-04T00:43:04.384Z,23.77
2017-02-04T00:44:13.500Z,23.77
2017-02-04T00:45:24.191Z,23.86
2017-02-04T00:46:34.096Z,23.86
2017-02-04T00:47:43.602Z,23.77
2017-02-04T00:48:54.189Z,23.77
2017-02-04T00:50:04.487Z,23.86
2017-02-04T00:51:14.392Z,23.77
2017-02-04T00:52:25.090Z,23.77
2017-02-04T00:53:34.589Z,23.77
2017-02-04T00:54:45.133Z,24.24
2017-02-04T00:55:55.821Z,23.86
2017-02-04T00:57:05.724Z,24.24
2017-02-04T00:58:15.624Z,24.15
2017-02-04T00:59:25.130Z,23.77
2017-02-04T01:00:34.956Z,23.77
2017-02-04T01:01:45.242Z,23.77
2017-02-04T01:02:55.535Z,23.86
2017-02-04T01:04:05.433Z,24.24
2017-02-04T01:05:15.718Z,24.24
2017-02-04T01:06:25.924Z,23.86
2017-02-04T01:07:35.451Z,23.77
2017-02-04T01:08:45.742Z,24.05
2017-02-04T01:09:56.439Z,24.05
2017-02-04T01:11:06.336Z,24.15
2017-02-04T01:12:16.884Z,23.77
2017-02-04T01:13:27.180Z,23.86
2017-02-04T01:14:37.086Z,24.15
2017-02-04T01:15:46.987Z,23.77
2017-02-04T01:16:57.288Z,24.24
2017-02-04T01:18:06.701Z,24.15
2017-02-04T01:19:16.587Z,24.34
2017-02-04T01:20:26.491Z,24.24
2017-02-04T01:21:35.997Z,23.77
2017-02-04T01:22:46.379Z,23.86
2017-02-04T01:23:56.523Z,23.77
2017-02-04T01:25:07.198Z,23.86
2017-02-04T01:26:17.483Z,24.24
2017-02-04T01:27:26.987Z,24.24
2017-02-04T01:28:36.091Z,24.15
2017-02-04T01:29:46.685Z,24.24
2017-02-04T01:30:56.966Z,23.96
2017-02-04T01:32:07.656Z,24.15
2017-02-04T01:33:17.941Z,23.96
2017-02-04T01:34:28.223Z,23.96
2017-02-04T01:35:38.391Z,23.96
2017-02-04T01:36:48.667Z,24.05
2017-02-04T01:37:58.225Z,23.96
2017-02-04T01:39:08.515Z,23.96
2017-02-04T01:40:18.414Z,23.86
2017-02-04T01:41:28.212Z,24.05
2017-02-04T01:42:38.107Z,23.96
2017-02-04T01:43:47.997Z,23.96
2017-02-04T01:44:58.288Z,24.24
2017-02-04T01:46:08.575Z,24.05
2017-02-04T01:47:18.340Z,24.05
2017-02-04T01:48:28.640Z,24.24
2017-02-04T01:49:39.328Z,23.96
2017-02-04T01:50:49.622Z,24.05
2017-02-04T01:51:59.925Z,23.96
2017-02-04T01:53:10.463Z,23.96
2017-02-04T01:54:20.360Z,24.05
2017-02-04T01:55:30.266Z,23.86
2017-02-04T01:56:40.157Z,24.24
2017-02-04T01:57:49.281Z,24.15
2017-02-04T01:58:59.425Z,23.96
2017-02-04T02:00:08.534Z,23.86
2017-02-04T02:01:18.834Z,24.05
2017-02-04T02:02:28.760Z,24.05
2017-02-04T02:03:38.268Z,24.15
2017-02-04T02:04:48.809Z,24.24
2017-02-04T02:05:58.701Z,23.96
2017-02-04T02:07:08.201Z,23.86
2017-02-04T02:08:17.709Z,24.24
2017-02-04T02:09:27.995Z,23.96
2017-02-04T02:10:38.920Z,23.96
2017-02-04T02:11:48.427Z,24.05
2017-02-04T02:12:58.728Z,23.96
2017-02-04T02:14:07.839Z,23.86
2017-02-04T02:15:18.126Z,23.96
2017-02-04T02:16:29.080Z,23.86
2017-02-04T02:17:39.368Z,23.96
2017-02-04T02:18:49.068Z,23.86
2017-02-04T02:19:58.962Z,23.96
2017-02-04T02:21:09.258Z,23.96
2017-02-04T02:22:19.401Z,23.96
2017-02-04T02:23:29.300Z,23.96
2017-02-04T02:24:39.687Z,24.05
2017-02-04T02:25:49.970Z,23.96
2017-02-04T02:26:59.896Z,24.05
2017-02-04T02:28:10.823Z,23.96
2017-02-04T02:29:20.330Z,23.96
2017-02-04T02:30:30.224Z,23.96
2017-02-04T02:31:39.333Z,23.77
2017-02-04T02:32:49.620Z,23.86
2017-02-04T02:33:59.427Z,23.77
2017-02-04T02:35:09.973Z,23.86
2017-02-04T02:36:19.867Z,23.96
2017-02-04T02:37:29.373Z,23.96
2017-02-04T02:38:40.063Z,23.86
2017-02-04T02:39:50.595Z,23.77
2017-02-04T02:41:00.890Z,23.77
2017-02-04T02:42:10.385Z,23.96
2017-02-04T02:43:20.279Z,23.86
2017-02-04T02:44:30.192Z,23.86
2017-02-04T02:45:39.542Z,23.86
2017-02-04T02:46:49.037Z,23.86
2017-02-04T02:47:59.717Z,24.05
2017-02-04T02:49:08.830Z,23.96
2017-02-04T02:50:18.826Z,24.05
2017-02-04T02:51:28.631Z,23.96
2017-02-04T02:52:38.130Z,23.86
2017-02-04T02:53:48.615Z,23.86
2017-02-04T02:54:58.113Z,23.77
2017-02-04T02:56:08.785Z,23.77
2017-02-04T02:57:18.542Z,24.15
2017-02-04T02:58:28.473Z,23.77
2017-02-04T02:59:38.366Z,23.96
2017-02-04T03:00:48.255Z,23.96
2017-02-04T03:01:57.762Z,23.86
2017-02-04T03:03:08.300Z,23.96
2017-02-04T03:04:18.192Z,23.86
2017-02-04T03:05:27.699Z,23.86
2017-02-04T03:06:37.586Z,23.86
2017-02-04T03:07:47.871Z,23.96
2017-02-04T03:08:57.615Z,23.77
2017-02-04T03:10:08.297Z,23.77
2017-02-04T03:11:18.240Z,24.24
2017-02-04T03:12:28.567Z,24.24
2017-02-04T03:13:39.247Z,24.15
2017-02-04T03:14:48.994Z,24.34
2017-02-04T03:15:59.705Z,24.34
2017-02-04T03:17:09.994Z,23.86
2017-02-04T03:18:19.097Z,23.86
2017-02-04T03:19:28.996Z,23.77
2017-02-04T03:20:38.751Z,23.77
2017-02-04T03:21:49.455Z,23.86
2017-02-04T03:22:58.951Z,23.77
2017-02-04T03:24:08.844Z,23.77
2017-02-04T03:25:19.129Z,24.24
2017-02-04T03:26:29.659Z,23.86
2017-02-04T03:27:39.153Z,24.15
2017-02-04T03:28:49.443Z,23.77
2017-02-04T03:29:59.726Z,23.86
2017-02-04T03:31:10.013Z,23.96
2017-02-04T03:32:20.539Z,23.77
2017-02-04T03:33:30.825Z,24.34
2017-02-04T03:34:40.716Z,24.15
2017-02-04T03:35:51.007Z,23.86
2017-02-04T03:37:00.509Z,23.86
2017-02-04T03:38:11.049Z,24.24
2017-02-04T03:39:20.941Z,24.24
2017-02-04T03:40:31.617Z,24.15
2017-02-04T03:41:41.501Z,23.77
2017-02-04T03:42:51.809Z,23.77
2017-02-04T03:44:02.346Z,24.34
2017-02-04T03:45:12.622Z,23.86
2017-02-04T03:46:22.518Z,23.86
2017-02-04T03:47:32.419Z,24.24
2017-02-04T03:48:42.331Z,24.24
2017-02-04T03:49:53.290Z,23.86
2017-02-04T03:51:03.186Z,23.86
2017-02-04T03:52:13.076Z,24.24
2017-02-04T03:53:23.898Z,23.86
2017-02-04T03:54:33.398Z,23.86
2017-02-04T03:55:43.145Z,24.24
2017-02-04T03:56:53.443Z,24.24
2017-02-04T03:58:02.552Z,23.77
2017-02-04T03:59:12.054Z,24.24
2017-02-04T04:00:21.555Z,24.24
2017-02-04T04:01:32.136Z,24.24
2017-02-04T04:02:42.819Z,24.24
2017-02-04T04:03:53.511Z,24.24
2017-02-04T04:05:03.407Z,24.24
2017-02-04T04:06:13.354Z,23.77
2017-02-04T04:07:23.504Z,23.86
2017-02-04T04:08:34.186Z,23.96
2017-02-04T04:09:44.076Z,23.77
2017-02-04T04:10:53.967Z,24.05
2017-02-04T04:12:04.641Z,24.34
2017-02-04T04:13:14.444Z,24.05
2017-02-04T04:14:24.739Z,24.05
2017-02-04T04:15:34.628Z,24.24
2017-02-04T04:16:44.521Z,24.34
2017-02-04T04:17:54.023Z,24.34
2017-02-04T04:19:04.559Z,24.05
2017-02-04T04:20:14.444Z,23.77
2017-02-04T04:21:24.330Z,23.77
2017-02-04T04:22:33.836Z,24.24
2017-02-04T04:23:43.339Z,24.34
2017-02-04T04:24:54.267Z,24.34
2017-02-04T04:26:04.608Z,24.34
2017-02-04T04:27:14.499Z,24.24
2017-02-04T04:28:24.384Z,24.24
2017-02-04T04:29:33.091Z,24.24
2017-02-04T04:30:42.850Z,23.86
2017-02-04T04:31:53.129Z,23.77
2017-02-04T04:33:03.406Z,24.34
2017-02-04T04:34:13.445Z,24.24
2017-02-04T04:35:23.732Z,24.24
2017-02-04T04:36:34.654Z,24.24
2017-02-04T04:37:44.543Z,24.34
2017-02-04T04:38:54.043Z,24.24
2017-02-04T04:40:03.557Z,24.34
2017-02-04T04:41:13.846Z,24.34
2017-02-04T04:42:23.245Z,24.34
2017-02-04T04:43:33.146Z,24.24
2017-02-04T04:44:43.434Z,23.77
2017-02-04T04:45:53.329Z,24.24
2017-02-04T04:47:03.219Z,24.24
2017-02-04T04:48:13.359Z,23.77
2017-02-04T04:49:22.858Z,24.24
2017-02-04T04:50:33.152Z,23.86
2017-02-04T04:51:43.075Z,24.24
2017-02-04T04:52:52.572Z,23.96
2017-02-04T04:54:03.108Z,23.86
2017-02-04T04:55:12.614Z,24.05
2017-02-04T04:56:22.109Z,23.96
2017-02-04T04:57:32.404Z,23.86
2017-02-04T04:58:42.689Z,23.86
2017-02-04T04:59:53.235Z,23.86
2017-02-04T05:01:03.915Z,23.77
2017-02-04T05:02:13.409Z,23.86
2017-02-04T05:03:22.915Z,23.86
2017-02-04T05:04:33.595Z,24.34
2017-02-04T05:05:44.126Z,24.34
2017-02-04T05:06:54.812Z,24.05
2017-02-04T05:08:04.697Z,23.86
2017-02-04T05:09:15.383Z,23.96
2017-02-04T05:10:25.273Z,23.96
2017-02-04T05:11:35.415Z,23.86
2017-02-04T05:12:46.089Z,23.96
2017-02-04T05:13:55.616Z,23.86
2017-02-04T05:15:05.902Z,23.96
2017-02-04T05:16:16.193Z,23.96
2017-02-04T05:17:26.337Z,23.96
2017-02-04T05:18:36.223Z,23.96
2017-02-04T05:19:46.510Z,23.96
2017-02-04T05:20:56.825Z,24.24
2017-02-04T05:22:07.117Z,24.15
2017-02-04T05:23:17.261Z,24.24
2017-02-04T05:24:27.556Z,23.86
2017-02-04T05:25:37.052Z,23.77
2017-02-04T05:26:46.940Z,23.77
2017-02-04T05:27:56.833Z,23.86
2017-02-04T05:29:06.583Z,23.86
2017-02-04T05:30:16.487Z,23.77
2017-02-04T05:31:26.386Z,23.86
2017-02-04T05:32:35.490Z,23.77
2017-02-04T05:33:45.766Z,23.77
2017-02-04T05:34:56.344Z,23.67
2017-02-04T05:36:06.243Z,23.77
2017-02-04T05:37:15.743Z,23.77
2017-02-04T05:38:26.416Z,23.67
2017-02-04T05:39:35.916Z,23.67
2017-02-04T05:40:46.449Z,23.86
2017-02-04T05:41:56.335Z,23.86
2017-02-04T05:43:06.624Z,23.77
2017-02-04T05:44:16.124Z,23.96
2017-02-04T05:45:26.413Z,23.77
2017-02-04T05:46:36.559Z,23.77
2017-02-04T05:47:46.053Z,23.67
2017-02-04T05:48:55.944Z,23.57
2017-02-04T05:50:06.235Z,23.77
2017-02-04T05:51:16.122Z,23.57
2017-02-04T05:52:26.697Z,23.57
2017-02-04T05:53:36.581Z,23.77
2017-02-04T05:54:46.470Z,23.77
2017-02-04T05:55:57.201Z,23.86
2017-02-04T05:57:07.491Z,23.67
2017-02-04T05:58:18.027Z,23.67
2017-02-04T05:59:28.717Z,23.67
2017-02-04T06:00:38.615Z,23.67
2017-02-04T06:01:49.296Z,23.77
2017-02-04T06:02:59.622Z,23.67
2017-02-04T06:04:10.548Z,23.77
2017-02-04T06:05:20.831Z,23.57
2017-02-04T06:06:31.121Z,23.48
2017-02-04T06:07:41.402Z,23.38
2017-02-04T06:08:50.513Z,23.48
2017-02-04T06:10:00.663Z,23.38
2017-02-04T06:11:10.668Z,23.38
2017-02-04T06:12:20.163Z,23.38
2017-02-04T06:13:30.443Z,23.38
2017-02-04T06:14:41.127Z,23
2017-02-04T06:15:51.684Z,23.38
2017-02-04T06:17:01.978Z,23.38
2017-02-04T06:18:11.482Z,23.1
2017-02-04T06:19:21.762Z,23.28
2017-02-04T06:20:32.447Z,23.28
2017-02-04T06:21:43.028Z,23.28
2017-02-04T06:22:53.713Z,22.91
2017-02-04T06:24:03.605Z,23.19
2017-02-04T06:25:13.495Z,23.19
2017-02-04T06:26:24.164Z,23.1
2017-02-04T06:27:35.151Z,23
2017-02-04T06:28:45.542Z,23.28
2017-02-04T06:29:55.427Z,23.19
2017-02-04T06:31:05.713Z,23.19
2017-02-04T06:32:16.002Z,23.38
2017-02-04T06:33:26.767Z,23.38
2017-02-04T06:34:37.063Z,23.19
2017-02-04T06:35:46.951Z,23.19
2017-02-04T06:36:57.632Z,23.19
2017-02-04T06:38:07.923Z,23.19
2017-02-04T06:39:18.073Z,23.19
2017-02-04T06:40:27.571Z,23.1
2017-02-04T06:41:37.865Z,23.19
2017-02-04T06:42:48.157Z,23.1
2017-02-04T06:43:58.831Z,23.1
2017-02-04T06:45:09.373Z,23.19
2017-02-04T06:46:20.041Z,23.1
2017-02-04T06:47:29.951Z,23.38
2017-02-04T06:48:39.843Z,23.1
2017-02-04T06:49:49.346Z,23.1
2017-02-04T06:50:59.491Z,23.19
2017-02-04T06:52:09.378Z,23.1
2017-02-04T06:53:20.060Z,23.1
2017-02-04T06:54:30.351Z,23.1
2017-02-04T06:55:41.023Z,23.19
2017-02-04T06:56:51.227Z,23.19
2017-02-04T06:58:01.560Z,23.19
2017-02-04T06:59:10.780Z,23.19
2017-02-04T07:00:21.498Z,23.19
2017-02-04T07:01:31.785Z,23.19
2017-02-04T07:02:41.559Z,23.1
2017-02-04T07:03:52.241Z,23.19
2017-02-04T07:05:02.907Z,23.19
2017-02-04T07:06:13.357Z,23.19
2017-02-04T07:07:23.652Z,23.19
2017-02-04T07:08:34.655Z,23.19
2017-02-04T07:09:44.935Z,23.19
2017-02-04T07:10:54.046Z,23.1
2017-02-04T07:12:03.942Z,23.19
2017-02-04T07:13:14.622Z,23.1
2017-02-04T07:14:24.767Z,23.28
2017-02-04T07:15:35.058Z,23.28
2017-02-04T07:16:45.352Z,23.1
2017-02-04T07:17:55.645Z,23.19
2017-02-04T07:19:05.545Z,23.1
2017-02-04T07:20:16.498Z,23.19
2017-02-04T07:21:26.378Z,23.28
2017-02-04T07:22:36.670Z,23.1
2017-02-04T07:23:47.376Z,23.1
2017-02-04T07:24:56.876Z,23.19
2017-02-04T07:26:07.813Z,23
2017-02-04T07:27:18.486Z,23.19
2017-02-04T07:28:29.175Z,23.19
2017-02-04T07:29:39.857Z,23.28
2017-02-04T07:30:50.144Z,23.19
2017-02-04T07:32:00.727Z,23.19
2017-02-04T07:33:10.235Z,23.19
2017-02-04T07:34:20.131Z,23.19
2017-02-04T07:35:30.413Z,23.19
2017-02-04T07:36:40.699Z,23.19
2017-02-04T07:37:51.640Z,23.38
2017-02-04T07:39:01.587Z,23.48
2017-02-04T07:40:11.249Z,23.28
2017-02-04T07:41:22.086Z,22.91
2017-02-04T07:42:32.764Z,23.38
2017-02-04T07:43:43.306Z,23.19
2017-02-04T07:44:53.599Z,23.38
2017-02-04T07:46:03.891Z,22.91
2017-02-04T07:47:14.194Z,23.38
2017-02-04T07:48:24.868Z,23.48
2017-02-04T07:49:34.621Z,23.19
2017-02-04T07:50:44.521Z,23.28
2017-02-04T07:51:54.807Z,23.28
2017-02-04T07:53:05.100Z,23.19
2017-02-04T07:54:14.224Z,23.28
2017-02-04T07:55:24.762Z,23.19
2017-02-04T07:56:35.443Z,23.19
2017-02-04T07:57:46.124Z,23.19
2017-02-04T07:58:56.015Z,23.19
2017-02-04T08:00:06.294Z,23.38
2017-02-04T08:01:16.441Z,23.19
2017-02-04T08:02:27.161Z,23.19
2017-02-04T08:03:37.048Z,23.19
2017-02-04T08:04:47.341Z,23.28
2017-02-04T08:05:57.639Z,23.38
2017-02-04T08:07:07.781Z,23.38
2017-02-04T08:08:17.711Z,23.28
2017-02-04T08:09:28.395Z,23.38
2017-02-04T08:10:39.084Z,23.38
2017-02-04T08:11:49.369Z,23.19
2017-02-04T08:12:59.899Z,23.19
2017-02-04T08:14:10.194Z,23.28
2017-02-04T08:15:20.478Z,23.38
2017-02-04T08:16:30.760Z,23
2017-02-04T08:17:41.053Z,23
2017-02-04T08:18:52.039Z,22.91
2017-02-04T08:20:01.943Z,23
2017-02-04T08:21:11.436Z,23
2017-02-04T08:22:20.940Z,23
2017-02-04T08:23:31.635Z,23.38
2017-02-04T08:24:41.779Z,22.91
2017-02-04T08:25:52.476Z,22.81
2017-02-04T08:27:02.363Z,23.1
2017-02-04T08:28:12.670Z,22.91
2017-02-04T08:29:22.954Z,22.91
2017-02-04T08:30:33.112Z,22.91
2017-02-04T08:31:43.800Z,22.91
2017-02-04T08:32:54.091Z,23.19
2017-02-04T08:34:04.768Z,23
2017-02-04T08:35:15.049Z,22.91
2017-02-04T08:36:25.587Z,23.1
2017-02-04T08:37:35.873Z,23.38
2017-02-04T08:38:46.158Z,23.28
2017-02-04T08:39:56.847Z,23.28
2017-02-04T08:41:07.196Z,22.91
2017-02-04T08:42:17.393Z,23.38
2017-02-04T08:43:26.896Z,23
2017-02-04T08:44:37.172Z,22.91
2017-02-04T08:45:46.680Z,23.48
2017-02-04T08:46:56.190Z,23.3
2017-02-04T08:48:06.781Z,23.38
2017-02-04T08:49:17.070Z,23.38
2017-02-04T08:50:26.961Z,22.91
2017-02-04T08:51:36.855Z,23.11
2017-02-04T08:52:47.292Z,22.91
2017-02-04T08:53:57.435Z,22.91
2017-02-04T08:55:08.117Z,23.38
2017-02-04T08:56:17.627Z,23.19
2017-02-04T08:57:27.521Z,23.01
2017-02-04T08:58:38.223Z,22.91
2017-02-04T08:59:48.368Z,23
2017-02-04T09:00:58.654Z,22.91
2017-02-04T09:02:08.545Z,23.11
2017-02-04T09:03:19.226Z,22.91
2017-02-04T09:04:29.528Z,23.11
2017-02-04T09:05:40.125Z,23.01
2017-02-04T09:06:50.027Z,23.01
2017-02-04T09:07:59.537Z,22.91
2017-02-04T09:09:09.822Z,23.01
2017-02-04T09:10:20.116Z,23.11
2017-02-04T09:11:30.711Z,23.01
2017-02-04T09:12:41.397Z,22.82
2017-02-04T09:13:51.309Z,23.11
2017-02-04T09:15:01.626Z,23.11
2017-02-04T09:16:12.313Z,22.82
2017-02-04T09:17:22.857Z,23.49
2017-02-04T09:18:33.537Z,23.11
2017-02-04T09:19:43.821Z,23.01
2017-02-04T09:20:53.729Z,22.82
2017-02-04T09:22:04.418Z,23.11
2017-02-04T09:23:14.958Z,23.01
2017-02-04T09:24:24.849Z,22.91
2017-02-04T09:25:35.137Z,23.01
2017-02-04T09:26:45.830Z,22.91
2017-02-04T09:27:56.136Z,23.11
2017-02-04T09:29:06.669Z,22.82
2017-02-04T09:30:16.571Z,23.01
2017-02-04T09:31:26.865Z,23.39
2017-02-04T09:32:36.401Z,23.49
2017-02-04T09:33:46.703Z,23.21
2017-02-04T09:34:56.944Z,23.21
2017-02-04T09:36:07.634Z,23.11
2017-02-04T09:37:17.540Z,22.91
2017-02-04T09:38:27.437Z,22.91
2017-02-04T09:39:36.941Z,23.39
2017-02-04T09:40:47.511Z,22.91
2017-02-04T09:41:58.196Z,22.91
2017-02-04T09:43:08.891Z,22.91
2017-02-04T09:44:19.174Z,23.11
2017-02-04T09:45:29.478Z,23.39
2017-02-04T09:46:40.022Z,23.21
2017-02-04T09:47:50.703Z,23.21
2017-02-04T09:49:00.992Z,23.39
2017-02-04T09:50:10.493Z,23.21
2017-02-04T09:51:20.045Z,23.3
2017-02-04T09:52:30.792Z,23.21
2017-02-04T09:53:41.099Z,22.91
2017-02-04T09:54:51.784Z,23.39
2017-02-04T09:56:02.487Z,23.21
2017-02-04T09:57:13.175Z,23.21
2017-02-04T09:58:22.996Z,23.39
2017-02-04T09:59:33.283Z,23.21
2017-02-04T10:00:44.185Z,23.3
2017-02-04T10:01:54.114Z,23.21
2017-02-04T10:03:03.618Z,23.21
2017-02-04T10:04:14.159Z,23.21
2017-02-04T10:05:24.443Z,23.11
2017-02-04T10:06:35.134Z,23.11
2017-02-04T10:07:45.416Z,23.11
2017-02-04T10:08:55.320Z,23.11
2017-02-04T10:10:05.474Z,23.21
2017-02-04T10:11:16.167Z,23.21
2017-02-04T10:12:25.667Z,23.11
2017-02-04T10:13:34.785Z,23.11
2017-02-04T10:14:45.516Z,23.21
2017-02-04T10:15:56.109Z,23.11
2017-02-04T10:17:06.009Z,23.11
2017-02-04T10:18:15.913Z,23.21
2017-02-04T10:19:25.817Z,23.11
2017-02-04T10:20:36.500Z,23.21
2017-02-04T10:21:46.639Z,23.01
2017-02-04T10:22:57.325Z,23.11
2017-02-04T10:24:08.003Z,23.11
2017-02-04T10:25:18.317Z,23.21
2017-02-04T10:26:28.213Z,23.11
2017-02-04T10:27:37.970Z,23.21
2017-02-04T10:28:47.923Z,23.21
2017-02-04T10:29:58.214Z,23.01
2017-02-04T10:31:07.732Z,23.11
2017-02-04T10:32:18.033Z,23.21
2017-02-04T10:33:28.588Z,23.39
2017-02-04T10:34:39.268Z,23.21
2017-02-04T10:35:49.966Z,23.21
2017-02-04T10:36:59.864Z,23.21
2017-02-04T10:38:10.167Z,23.21
2017-02-04T10:39:21.180Z,23.21
2017-02-04T10:40:31.476Z,23.21
2017-02-04T10:41:42.202Z,23.39
2017-02-04T10:42:52.897Z,23.11
2017-02-04T10:44:03.310Z,23.58
2017-02-04T10:45:14.317Z,23.68
2017-02-04T10:46:24.234Z,23.68
2017-02-04T10:47:34.543Z,23.68
2017-02-04T10:48:44.481Z,23.78
2017-02-04T10:49:55.176Z,23.88
2017-02-04T10:51:06.134Z,23.58
2017-02-04T10:52:16.420Z,23.68
2017-02-04T10:53:27.278Z,23.58
2017-02-04T10:54:37.564Z,23.78
2017-02-04T10:55:47.847Z,23.78
2017-02-04T10:56:58.390Z,24.07
2017-02-04T10:58:07.935Z,23.58
2017-02-04T10:59:18.240Z,23.68
2017-02-04T11:00:28.527Z,23.58
2017-02-04T11:01:39.220Z,23.68
2017-02-04T11:02:50.171Z,23.78
2017-02-04T11:04:00.487Z,23.68
2017-02-04T11:05:10.772Z,23.78
2017-02-04T11:06:21.068Z,23.68
2017-02-04T11:07:31.357Z,23.88
2017-02-04T11:08:41.942Z,23.78
2017-02-04T11:09:52.245Z,23.68
2017-02-04T11:11:02.145Z,23.97
2017-02-04T11:12:12.434Z,23.88
2017-02-04T11:13:22.734Z,23.68
2017-02-04T11:14:33.723Z,23.88
2017-02-04T11:15:44.021Z,23.78
2017-02-04T11:16:53.540Z,23.78
2017-02-04T11:18:03.836Z,23.68
2017-02-04T11:19:13.756Z,23.78
2017-02-04T11:20:24.350Z,24.16
2017-02-04T11:21:33.855Z,24.26
2017-02-04T11:22:44.209Z,24.07
2017-02-04T11:23:54.911Z,24.07
2017-02-04T11:25:04.815Z,23.88
2017-02-04T11:26:15.362Z,24.26
2017-02-04T11:27:25.671Z,24.26
2017-02-04T11:28:35.957Z,23.88
2017-02-04T11:29:45.458Z,23.88
2017-02-04T11:30:56.159Z,23.97
2017-02-04T11:32:06.301Z,23.97
2017-02-04T11:33:16.204Z,23.97
2017-02-04T11:34:26.125Z,23.78
2017-02-04T11:35:36.822Z,23.88
2017-02-04T11:36:46.721Z,23.88
2017-02-04T11:37:57.263Z,23.88
2017-02-04T11:39:07.551Z,24.16
2017-02-04T11:40:17.452Z,23.78
2017-02-04T11:41:28.161Z,23.88
2017-02-04T11:42:38.853Z,24.16
2017-02-04T11:43:49.796Z,24.26
2017-02-04T11:45:00.117Z,24.26
2017-02-04T11:46:10.018Z,24.16
2017-02-04T11:47:20.722Z,24.26
2017-02-04T11:48:30.622Z,24.26
2017-02-04T11:49:40.374Z,23.98
2017-02-04T11:50:49.891Z,24.26
2017-02-04T11:51:59.794Z,24.37
2017-02-04T11:53:09.689Z,24.26
2017-02-04T11:54:19.610Z,24.35
2017-02-04T11:55:30.544Z,24.16
2017-02-04T11:56:41.233Z,23.97
2017-02-04T11:57:51.536Z,24.16
2017-02-04T11:59:01.441Z,23.88
2017-02-04T12:00:11.748Z,23.97
2017-02-04T12:01:22.307Z,24.08
2017-02-04T12:02:31.829Z,24.18
2017-02-04T12:03:42.135Z,24.55
2017-02-04T12:04:52.838Z,24.26
2017-02-04T12:06:03.137Z,24.35
2017-02-04T12:07:13.686Z,24.45
2017-02-04T12:08:24.378Z,24.45
2017-02-04T12:09:34.286Z,24.27
2017-02-04T12:10:44.201Z,24.45
2017-02-04T12:11:54.875Z,24.64
2017-02-04T12:13:05.815Z,24.26
2017-02-04T12:14:16.505Z,24.45
2017-02-04T12:15:26.798Z,24.64
2017-02-04T12:16:37.547Z,24.84
2017-02-04T12:17:47.854Z,24.74
2017-02-04T12:18:58.052Z,24.74
2017-02-04T12:20:08.350Z,24.74
2017-02-04T12:21:17.862Z,24.84
2017-02-04T12:22:27.777Z,24.55
2017-02-04T12:23:38.118Z,24.84
2017-02-04T12:24:49.078Z,24.74
2017-02-04T12:25:59.770Z,24.75
2017-02-04T12:27:09.665Z,24.64
2017-02-04T12:28:19.588Z,24.84
2017-02-04T12:29:29.490Z,24.85
2017-02-04T12:30:40.427Z,24.64
2017-02-04T12:31:50.734Z,24.64
2017-02-04T12:33:01.083Z,24.84
2017-02-04T12:34:11.774Z,24.84
2017-02-04T12:35:21.666Z,24.74
2017-02-04T12:36:32.612Z,24.74
2017-02-04T12:37:42.528Z,24.74
2017-02-04T12:38:52.419Z,24.84
2017-02-04T12:40:03.116Z,24.84
2017-02-04T12:41:12.638Z,24.74
2017-02-04T12:42:23.188Z,24.64
2017-02-04T12:43:32.716Z,24.45
2017-02-04T12:44:41.849Z,24.26
2017-02-04T12:45:51.769Z,24.75
2017-02-04T12:47:01.265Z,24.45
2017-02-04T12:48:17.328Z,24.45
2017-02-04T12:49:27.241Z,24.27
2017-02-04T12:50:37.540Z,24.46
2017-02-04T12:51:47.480Z,24.35
2017-02-04T12:52:58.219Z,24.35
2017-02-04T12:54:09.197Z,24.46
2017-02-04T12:55:19.489Z,24.35
2017-02-04T12:56:30.209Z,24.45
2017-02-04T12:57:40.958Z,24.35
2017-02-04T12:58:51.282Z,24.35
2017-02-04T13:00:01.945Z,24.35
2017-02-04T13:01:11.887Z,24.46
2017-02-04T13:02:22.603Z,24.35
2017-02-04T13:03:32.559Z,24.45
2017-02-04T13:04:43.282Z,24.45
2017-02-04T13:05:54.255Z,24.35
2017-02-04T13:07:04.211Z,24.46
2017-02-04T13:08:15.165Z,24.35
2017-02-04T13:09:25.906Z,24.27
2017-02-04T13:10:36.633Z,24.35
2017-02-04T13:11:47.593Z,24.45
2017-02-04T13:12:57.918Z,24.37
2017-02-04T13:14:08.258Z,24.45
2017-02-04T13:15:19.129Z,24.35
2017-02-04T13:16:29.837Z,24.35
2017-02-04T13:17:40.014Z,24.35
2017-02-04T13:18:50.326Z,24.37
2017-02-04T13:20:00.233Z,24.46
2017-02-04T13:21:10.152Z,24.46
2017-02-04T13:22:20.078Z,24.46
2017-02-04T13:23:31.093Z,24.45
2017-02-04T13:24:41.823Z,24.45
2017-02-04T13:25:52.537Z,24.55
2017-02-04T13:27:02.072Z,24.56
2017-02-04T13:28:12.378Z,24.46
2017-02-04T13:29:22.629Z,24.37
2017-02-04T13:30:32.931Z,24.45
2017-02-04T13:31:42.883Z,24.46
2017-02-04T13:32:53.581Z,24.45
2017-02-04T13:34:04.283Z,24.46
2017-02-04T13:35:14.525Z,24.26
2017-02-04T13:36:25.210Z,24.35
2017-02-04T13:37:35.526Z,24.45
2017-02-04T13:38:45.172Z,24.45
2017-02-04T13:39:55.892Z,24.35
2017-02-04T13:41:06.471Z,24.45
2017-02-04T13:42:17.192Z,24.45
2017-02-04T13:43:27.511Z,24.45
2017-02-04T13:44:37.834Z,24.46
2017-02-04T13:45:48.552Z,24.46
2017-02-04T13:46:59.145Z,24.65
2017-02-04T13:48:09.464Z,24.65
2017-02-04T13:49:19.407Z,24.74
2017-02-04T13:50:29.733Z,24.84
2017-02-04T13:51:40.085Z,24.84
2017-02-04T13:52:51.067Z,25.02
2017-02-04T13:54:01.397Z,25.02
2017-02-04T13:55:11.341Z,24.74
2017-02-04T13:56:21.669Z,25.21
2017-02-04T13:57:32.001Z,25.02
2017-02-04T13:58:42.257Z,24.94
2017-02-04T13:59:52.698Z,24.93
2017-02-04T14:01:03.418Z,24.74
2017-02-04T14:02:14.135Z,25.31
2017-02-04T14:03:24.871Z,25.12
2017-02-04T14:04:35.865Z,25.12
2017-02-04T14:05:46.592Z,24.84
2017-02-04T14:06:56.948Z,24.84
2017-02-04T14:08:06.891Z,24.84
2017-02-04T14:09:17.658Z,25.04
2017-02-04T14:10:28.250Z,24.74
2017-02-04T14:11:38.980Z,25.13
2017-02-04T14:12:49.312Z,24.93
2017-02-04T14:13:59.253Z,24.84
2017-02-04T14:15:09.569Z,24.84
2017-02-04T14:16:20.188Z,24.84
2017-02-04T14:17:30.910Z,24.65
2017-02-04T14:18:41.613Z,24.74
2017-02-04T14:19:51.534Z,24.93
2017-02-04T14:21:01.844Z,24.84
2017-02-04T14:22:12.884Z,24.75
2017-02-04T14:23:22.799Z,24.84
2017-02-04T14:24:33.126Z,24.84
2017-02-04T14:25:43.039Z,24.84
2017-02-04T14:26:52.563Z,24.64
2017-02-04T14:28:03.591Z,24.84
2017-02-04T14:29:14.314Z,24.64
2017-02-04T14:30:25.032Z,24.93
2017-02-04T14:31:35.763Z,24.64
2017-02-04T14:32:45.683Z,24.74
2017-02-04T14:33:55.172Z,24.74
2017-02-04T14:35:05.883Z,24.93
2017-02-04T14:36:16.602Z,24.74
2017-02-04T14:37:26.944Z,24.55
2017-02-04T14:38:37.653Z,24.93
2017-02-04T14:39:47.826Z,24.74
2017-02-04T14:40:58.550Z,24.74
2017-02-04T14:42:09.309Z,25.02
2017-02-04T14:43:20.022Z,24.84
2017-02-04T14:44:30.333Z,25.12
2017-02-04T14:45:40.922Z,25.12
2017-02-04T14:46:51.649Z,25.02
2017-02-04T14:48:02.359Z,24.93
2017-02-04T14:49:12.299Z,24.84
2017-02-04T14:50:22.632Z,24.74
2017-02-04T14:51:33.085Z,25.12
2017-02-04T14:52:43.404Z,25.12
2017-02-04T14:53:53.323Z,25.02
2017-02-04T14:55:03.619Z,25.12
2017-02-04T14:56:13.522Z,24.84
2017-02-04T14:57:24.517Z,24.93
2017-02-04T14:58:34.412Z,24.93
2017-02-04T14:59:45.105Z,24.93
2017-02-04T15:00:55.418Z,24.84
2017-02-04T15:02:05.336Z,25.02
2017-02-04T15:03:15.872Z,24.74
2017-02-04T15:04:26.186Z,24.84
2017-02-04T15:05:36.095Z,24.74
2017-02-04T15:06:46.433Z,24.74